sensor_id;sensor_type;location;lat;lon;timestamp;P1;durP1;ratioP1;P2;durP2;ratioP2
26034;SDS011;13809;48.632;11.576;2023-08-20T00:03:30;6.43;;;4.10;;
26034;SDS011;13809;48.632;11.576;2023-08-20T00:08:33;5.87;;;4.20;;
26034;SDS011;13809;48.632;11.576;2023-08-20T00:13:37;7.33;;;4.43;;
26034;SDS011;13809;48.632;11.576;2023-08-20T00:18:42;4.40;;;3.73;;
26034;SDS011;13809;48.632;11.576;2023-08-20T00:23:46;5.77;;;3.87;;
26034;SDS011;13809;48.632;11.576;2023-08-20T00:28:49;4.50;;;3.83;;
26034;SDS011;13809;48.632;11.576;2023-08-20T00:33:54;5.13;;;3.80;;
26034;SDS011;13809;48.632;11.576;2023-08-20T00:39:07;4.03;;;3.73;;
26034;SDS011;13809;48.632;11.576;2023-08-20T00:44:11;4.40;;;3.80;;
26034;SDS011;13809;48.632;11.576;2023-08-20T00:49:15;5.53;;;4.03;;
26034;SDS011;13809;48.632;11.576;2023-08-20T00:54:19;4.40;;;4.00;;
26034;SDS011;13809;48.632;11.576;2023-08-20T00:59:23;4.57;;;4.07;;
26034;SDS011;13809;48.632;11.576;2023-08-20T01:04:27;4.10;;;3.70;;
26034;SDS011;13809;48.632;11.576;2023-08-20T01:09:34;4.13;;;3.80;;
26034;SDS011;13809;48.632;11.576;2023-08-20T01:14:45;5.07;;;3.93;;
26034;SDS011;13809;48.632;11.576;2023-08-20T01:19:50;4.97;;;4.00;;
26034;SDS011;13809;48.632;11.576;2023-08-20T01:24:56;5.10;;;3.73;;
26034;SDS011;13809;48.632;11.576;2023-08-20T01:30:08;4.37;;;3.97;;
26034;SDS011;13809;48.632;11.576;2023-08-20T01:35:12;4.17;;;3.77;;
26034;SDS011;13809;48.632;11.576;2023-08-20T01:40:16;4.20;;;3.70;;
26034;SDS011;13809;48.632;11.576;2023-08-20T01:45:20;4.80;;;3.80;;
26034;SDS011;13809;48.632;11.576;2023-08-20T01:50:24;5.80;;;3.70;;
26034;SDS011;13809;48.632;11.576;2023-08-20T01:55:27;3.97;;;3.60;;
26034;SDS011;13809;48.632;11.576;2023-08-20T02:00:34;3.90;;;3.60;;
26034;SDS011;13809;48.632;11.576;2023-08-20T02:05:37;4.00;;;3.70;;
26034;SDS011;13809;48.632;11.576;2023-08-20T02:10:40;3.90;;;3.60;;
26034;SDS011;13809;48.632;11.576;2023-08-20T02:15:45;5.50;;;3.70;;
26034;SDS011;13809;48.632;11.576;2023-08-20T02:20:48;3.63;;;3.33;;
26034;SDS011;13809;48.632;11.576;2023-08-20T02:25:51;3.93;;;3.50;;
26034;SDS011;13809;48.632;11.576;2023-08-20T02:30:56;3.83;;;3.53;;
26034;SDS011;13809;48.632;11.576;2023-08-20T02:36:01;3.90;;;3.57;;
26034;SDS011;13809;48.632;11.576;2023-08-20T02:41:05;4.63;;;3.60;;
26034;SDS011;13809;48.632;11.576;2023-08-20T02:46:10;4.00;;;3.67;;
26034;SDS011;13809;48.632;11.576;2023-08-20T02:51:13;4.03;;;3.73;;
26034;SDS011;13809;48.632;11.576;2023-08-20T02:56:16;5.10;;;4.10;;
26034;SDS011;13809;48.632;11.576;2023-08-20T03:01:21;4.30;;;3.90;;
26034;SDS011;13809;48.632;11.576;2023-08-20T03:06:26;4.33;;;3.93;;
26034;SDS011;13809;48.632;11.576;2023-08-20T03:11:30;4.37;;;3.97;;
26034;SDS011;13809;48.632;11.576;2023-08-20T03:16:34;4.53;;;4.10;;
26034;SDS011;13809;48.632;11.576;2023-08-20T03:21:37;5.00;;;3.97;;
26034;SDS011;13809;48.632;11.576;2023-08-20T03:26:40;6.03;;;4.10;;
26034;SDS011;13809;48.632;11.576;2023-08-20T03:31:45;4.53;;;4.13;;
26034;SDS011;13809;48.632;11.576;2023-08-20T03:36:48;4.57;;;4.13;;
26034;SDS011;13809;48.632;11.576;2023-08-20T03:41:52;4.30;;;3.90;;
26034;SDS011;13809;48.632;11.576;2023-08-20T03:46:57;4.23;;;3.93;;
26034;SDS011;13809;48.632;11.576;2023-08-20T03:52:00;5.03;;;4.27;;
26034;SDS011;13809;48.632;11.576;2023-08-20T03:57:04;5.83;;;3.90;;
26034;SDS011;13809;48.632;11.576;2023-08-20T04:02:08;5.37;;;3.93;;
26034;SDS011;13809;48.632;11.576;2023-08-20T04:07:11;4.37;;;3.70;;
26034;SDS011;13809;48.632;11.576;2023-08-20T04:12:14;4.27;;;3.90;;
26034;SDS011;13809;48.632;11.576;2023-08-20T04:17:19;3.93;;;3.60;;
26034;SDS011;13809;48.632;11.576;2023-08-20T04:22:22;4.33;;;4.00;;
26034;SDS011;13809;48.632;11.576;2023-08-20T04:27:26;4.80;;;4.40;;
26034;SDS011;13809;48.632;11.576;2023-08-20T04:32:31;4.93;;;4.43;;
26034;SDS011;13809;48.632;11.576;2023-08-20T04:37:34;5.33;;;4.83;;
26034;SDS011;13809;48.632;11.576;2023-08-20T04:42:38;4.43;;;4.10;;
26034;SDS011;13809;48.632;11.576;2023-08-20T04:47:42;5.50;;;4.60;;
26034;SDS011;13809;48.632;11.576;2023-08-20T04:52:45;4.33;;;3.77;;
26034;SDS011;13809;48.632;11.576;2023-08-20T04:57:49;4.60;;;4.20;;
26034;SDS011;13809;48.632;11.576;2023-08-20T05:02:53;4.80;;;4.40;;
26034;SDS011;13809;48.632;11.576;2023-08-20T05:07:57;4.97;;;4.10;;
26034;SDS011;13809;48.632;11.576;2023-08-20T05:13:00;4.30;;;3.90;;
26034;SDS011;13809;48.632;11.576;2023-08-20T05:18:05;3.67;;;3.37;;
26034;SDS011;13809;48.632;11.576;2023-08-20T05:23:09;4.33;;;3.43;;
26034;SDS011;13809;48.632;11.576;2023-08-20T05:28:12;4.50;;;4.00;;
26034;SDS011;13809;48.632;11.576;2023-08-20T05:33:17;4.10;;;3.80;;
26034;SDS011;13809;48.632;11.576;2023-08-20T05:38:20;4.57;;;4.17;;
26034;SDS011;13809;48.632;11.576;2023-08-20T05:43:23;5.20;;;4.77;;
26034;SDS011;13809;48.632;11.576;2023-08-20T05:48:27;6.30;;;4.07;;
26034;SDS011;13809;48.632;11.576;2023-08-20T05:53:31;5.00;;;4.40;;
26034;SDS011;13809;48.632;11.576;2023-08-20T05:58:34;4.93;;;4.43;;
26034;SDS011;13809;48.632;11.576;2023-08-20T06:03:38;4.70;;;4.23;;
26034;SDS011;13809;48.632;11.576;2023-08-20T06:08:41;5.63;;;5.13;;
26034;SDS011;13809;48.632;11.576;2023-08-20T06:14:03;5.13;;;4.60;;
26034;SDS011;13809;48.632;11.576;2023-08-20T06:19:08;6.40;;;5.73;;
26034;SDS011;13809;48.632;11.576;2023-08-20T06:24:12;5.90;;;5.40;;
26034;SDS011;13809;48.632;11.576;2023-08-20T06:29:15;6.33;;;5.80;;
26034;SDS011;13809;48.632;11.576;2023-08-20T06:34:19;5.53;;;5.03;;
26034;SDS011;13809;48.632;11.576;2023-08-20T06:39:22;5.20;;;4.80;;
26034;SDS011;13809;48.632;11.576;2023-08-20T06:44:26;6.33;;;5.60;;
26034;SDS011;13809;48.632;11.576;2023-08-20T06:49:30;5.57;;;4.80;;
26034;SDS011;13809;48.632;11.576;2023-08-20T06:54:33;6.23;;;5.60;;
26034;SDS011;13809;48.632;11.576;2023-08-20T06:59:37;6.83;;;5.70;;
26034;SDS011;13809;48.632;11.576;2023-08-20T07:04:41;5.83;;;5.43;;
26034;SDS011;13809;48.632;11.576;2023-08-20T07:09:45;5.70;;;5.30;;
26034;SDS011;13809;48.632;11.576;2023-08-20T07:14:48;5.70;;;5.23;;
26034;SDS011;13809;48.632;11.576;2023-08-20T07:19:52;5.87;;;5.37;;
26034;SDS011;13809;48.632;11.576;2023-08-20T07:24:56;5.20;;;4.80;;
26034;SDS011;13809;48.632;11.576;2023-08-20T07:29:59;6.00;;;5.43;;
26034;SDS011;13809;48.632;11.576;2023-08-20T07:35:04;6.20;;;5.47;;
26034;SDS011;13809;48.632;11.576;2023-08-20T07:40:12;6.33;;;5.73;;
26034;SDS011;13809;48.632;11.576;2023-08-20T07:45:17;7.37;;;5.30;;
26034;SDS011;13809;48.632;11.576;2023-08-20T07:50:21;5.40;;;4.90;;
26034;SDS011;13809;48.632;11.576;2023-08-20T07:55:25;5.60;;;5.07;;
26034;SDS011;13809;48.632;11.576;2023-08-20T08:00:28;5.07;;;4.50;;
26034;SDS011;13809;48.632;11.576;2023-08-20T08:05:32;5.33;;;4.80;;
26034;SDS011;13809;48.632;11.576;2023-08-20T08:10:36;4.63;;;4.17;;
26034;SDS011;13809;48.632;11.576;2023-08-20T08:15:39;4.60;;;4.30;;
26034;SDS011;13809;48.632;11.576;2023-08-20T08:20:44;5.13;;;4.60;;
26034;SDS011;13809;48.632;11.576;2023-08-20T08:25:47;5.10;;;4.60;;
26034;SDS011;13809;48.632;11.576;2023-08-20T08:30:50;4.50;;;4.20;;
26034;SDS011;13809;48.632;11.576;2023-08-20T08:35:55;5.00;;;4.50;;
26034;SDS011;13809;48.632;11.576;2023-08-20T08:40:58;5.10;;;4.70;;
26034;SDS011;13809;48.632;11.576;2023-08-20T08:46:03;5.47;;;4.37;;
26034;SDS011;13809;48.632;11.576;2023-08-20T08:51:11;4.20;;;3.90;;
26034;SDS011;13809;48.632;11.576;2023-08-20T08:56:15;4.73;;;4.33;;
26034;SDS011;13809;48.632;11.576;2023-08-20T09:01:19;4.73;;;4.13;;
26034;SDS011;13809;48.632;11.576;2023-08-20T09:06:24;5.37;;;4.23;;
26034;SDS011;13809;48.632;11.576;2023-08-20T09:11:32;4.80;;;4.40;;
26034;SDS011;13809;48.632;11.576;2023-08-20T09:16:37;4.40;;;4.10;;
26034;SDS011;13809;48.632;11.576;2023-08-20T09:21:42;4.60;;;4.20;;
26034;SDS011;13809;48.632;11.576;2023-08-20T09:26:50;4.70;;;4.30;;
26034;SDS011;13809;48.632;11.576;2023-08-20T09:32:00;4.50;;;4.10;;
26034;SDS011;13809;48.632;11.576;2023-08-20T09:37:08;6.60;;;4.13;;
26034;SDS011;13809;48.632;11.576;2023-08-20T09:42:12;4.50;;;4.20;;
26034;SDS011;13809;48.632;11.576;2023-08-20T09:47:16;4.23;;;3.83;;
26034;SDS011;13809;48.632;11.576;2023-08-20T09:52:24;4.00;;;3.70;;
26034;SDS011;13809;48.632;11.576;2023-08-20T09:57:34;4.40;;;4.10;;
26034;SDS011;13809;48.632;11.576;2023-08-20T10:02:39;4.13;;;3.83;;
26034;SDS011;13809;48.632;11.576;2023-08-20T10:07:45;4.50;;;4.20;;
26034;SDS011;13809;48.632;11.576;2023-08-20T10:12:48;5.63;;;4.20;;
26034;SDS011;13809;48.632;11.576;2023-08-20T10:17:52;4.70;;;4.40;;
26034;SDS011;13809;48.632;11.576;2023-08-20T10:22:59;4.60;;;4.30;;
26034;SDS011;13809;48.632;11.576;2023-08-20T10:28:11;4.37;;;4.10;;
26034;SDS011;13809;48.632;11.576;2023-08-20T10:33:16;4.97;;;4.57;;
26034;SDS011;13809;48.632;11.576;2023-08-20T10:38:22;4.27;;;3.97;;
26034;SDS011;13809;48.632;11.576;2023-08-20T10:43:29;6.87;;;6.37;;
26034;SDS011;13809;48.632;11.576;2023-08-20T10:48:33;4.53;;;4.23;;
26034;SDS011;13809;48.632;11.576;2023-08-20T10:53:39;4.30;;;4.00;;
26034;SDS011;13809;48.632;11.576;2023-08-20T10:58:45;4.70;;;4.40;;
26034;SDS011;13809;48.632;11.576;2023-08-20T11:03:49;4.67;;;4.27;;
26034;SDS011;13809;48.632;11.576;2023-08-20T11:08:54;4.57;;;4.27;;
26034;SDS011;13809;48.632;11.576;2023-08-20T11:14:03;4.37;;;4.07;;
26034;SDS011;13809;48.632;11.576;2023-08-20T11:19:08;4.20;;;3.83;;
26034;SDS011;13809;48.632;11.576;2023-08-20T11:24:13;4.87;;;4.40;;
26034;SDS011;13809;48.632;11.576;2023-08-20T11:29:17;5.37;;;4.23;;
26034;SDS011;13809;48.632;11.576;2023-08-20T11:34:22;5.43;;;4.67;;
26034;SDS011;13809;48.632;11.576;2023-08-20T11:39:27;4.23;;;3.90;;
26034;SDS011;13809;48.632;11.576;2023-08-20T11:44:41;4.73;;;4.33;;
26034;SDS011;13809;48.632;11.576;2023-08-20T11:49:45;4.77;;;4.37;;
26034;SDS011;13809;48.632;11.576;2023-08-20T11:54:49;4.70;;;4.40;;
26034;SDS011;13809;48.632;11.576;2023-08-20T11:59:52;4.60;;;4.30;;
26034;SDS011;13809;48.632;11.576;2023-08-20T12:04:56;5.00;;;4.60;;
26034;SDS011;13809;48.632;11.576;2023-08-20T12:10:06;4.43;;;4.13;;
26034;SDS011;13809;48.632;11.576;2023-08-20T12:15:23;4.70;;;4.30;;
26034;SDS011;13809;48.632;11.576;2023-08-20T12:20:27;4.70;;;4.40;;
26034;SDS011;13809;48.632;11.576;2023-08-20T12:25:34;4.10;;;3.90;;
26034;SDS011;13809;48.632;11.576;2023-08-20T12:30:38;4.00;;;3.80;;
26034;SDS011;13809;48.632;11.576;2023-08-20T12:35:42;4.33;;;4.03;;
26034;SDS011;13809;48.632;11.576;2023-08-20T12:40:46;4.60;;;4.20;;
26034;SDS011;13809;48.632;11.576;2023-08-20T12:45:49;4.00;;;3.80;;
26034;SDS011;13809;48.632;11.576;2023-08-20T12:50:53;3.83;;;3.53;;
26034;SDS011;13809;48.632;11.576;2023-08-20T12:55:57;4.10;;;3.80;;
26034;SDS011;13809;48.632;11.576;2023-08-20T13:01:00;4.73;;;4.10;;
26034;SDS011;13809;48.632;11.576;2023-08-20T13:06:04;4.60;;;4.20;;
26034;SDS011;13809;48.632;11.576;2023-08-20T13:11:09;4.23;;;3.83;;
26034;SDS011;13809;48.632;11.576;2023-08-20T13:16:19;4.37;;;4.07;;
26034;SDS011;13809;48.632;11.576;2023-08-20T13:21:22;4.73;;;3.90;;
26034;SDS011;13809;48.632;11.576;2023-08-20T13:26:27;4.03;;;3.73;;
26034;SDS011;13809;48.632;11.576;2023-08-20T13:31:30;4.10;;;3.80;;
26034;SDS011;13809;48.632;11.576;2023-08-20T13:36:33;3.80;;;3.60;;
26034;SDS011;13809;48.632;11.576;2023-08-20T13:41:41;3.97;;;3.77;;
26034;SDS011;13809;48.632;11.576;2023-08-20T13:46:44;4.50;;;4.10;;
26034;SDS011;13809;48.632;11.576;2023-08-20T13:51:47;4.50;;;4.10;;
26034;SDS011;13809;48.632;11.576;2023-08-20T13:56:54;4.20;;;3.90;;
26034;SDS011;13809;48.632;11.576;2023-08-20T14:01:57;4.03;;;3.83;;
26034;SDS011;13809;48.632;11.576;2023-08-20T14:07:01;4.70;;;4.30;;
26034;SDS011;13809;48.632;11.576;2023-08-20T14:12:06;4.60;;;4.20;;
26034;SDS011;13809;48.632;11.576;2023-08-20T14:17:09;4.87;;;4.10;;
26034;SDS011;13809;48.632;11.576;2023-08-20T14:22:12;4.13;;;3.83;;
26034;SDS011;13809;48.632;11.576;2023-08-20T14:27:17;5.03;;;3.90;;
26034;SDS011;13809;48.632;11.576;2023-08-20T14:32:20;4.70;;;4.40;;
26034;SDS011;13809;48.632;11.576;2023-08-20T14:37:23;4.07;;;3.80;;
26034;SDS011;13809;48.632;11.576;2023-08-20T14:42:29;4.20;;;3.83;;
26034;SDS011;13809;48.632;11.576;2023-08-20T14:47:32;4.93;;;3.90;;
26034;SDS011;13809;48.632;11.576;2023-08-20T14:52:35;4.50;;;4.10;;
26034;SDS011;13809;48.632;11.576;2023-08-20T14:57:40;4.50;;;4.10;;
26034;SDS011;13809;48.632;11.576;2023-08-20T15:02:52;4.40;;;4.10;;
26034;SDS011;13809;48.632;11.576;2023-08-20T15:07:56;4.40;;;4.10;;
26034;SDS011;13809;48.632;11.576;2023-08-20T15:13:00;4.23;;;3.90;;
26034;SDS011;13809;48.632;11.576;2023-08-20T15:18:04;4.27;;;3.97;;
26034;SDS011;13809;48.632;11.576;2023-08-20T15:23:08;4.63;;;4.20;;
26034;SDS011;13809;48.632;11.576;2023-08-20T15:28:12;4.87;;;4.10;;
26034;SDS011;13809;48.632;11.576;2023-08-20T15:33:16;4.37;;;3.97;;
26034;SDS011;13809;48.632;11.576;2023-08-20T15:38:19;4.53;;;4.23;;
26034;SDS011;13809;48.632;11.576;2023-08-20T15:43:24;4.60;;;4.20;;
26034;SDS011;13809;48.632;11.576;2023-08-20T15:48:27;4.50;;;4.10;;
26034;SDS011;13809;48.632;11.576;2023-08-20T15:53:31;7.93;;;6.40;;
26034;SDS011;13809;48.632;11.576;2023-08-20T15:58:35;11.53;;;9.27;;
26034;SDS011;13809;48.632;11.576;2023-08-20T16:03:39;6.97;;;6.27;;
26034;SDS011;13809;48.632;11.576;2023-08-20T16:08:43;5.97;;;4.47;;
26034;SDS011;13809;48.632;11.576;2023-08-20T16:13:48;4.70;;;4.30;;
26034;SDS011;13809;48.632;11.576;2023-08-20T16:18:51;5.90;;;5.37;;
26034;SDS011;13809;48.632;11.576;2023-08-20T16:23:55;6.63;;;5.47;;
26034;SDS011;13809;48.632;11.576;2023-08-20T16:28:59;4.67;;;4.20;;
26034;SDS011;13809;48.632;11.576;2023-08-20T16:34:02;3.80;;;3.57;;
26034;SDS011;13809;48.632;11.576;2023-08-20T16:39:06;4.10;;;3.60;;
26034;SDS011;13809;48.632;11.576;2023-08-20T16:44:10;4.07;;;3.80;;
26034;SDS011;13809;48.632;11.576;2023-08-20T16:49:16;3.70;;;3.40;;
26034;SDS011;13809;48.632;11.576;2023-08-20T16:54:19;3.80;;;3.50;;
26034;SDS011;13809;48.632;11.576;2023-08-20T16:59:23;3.93;;;3.50;;
26034;SDS011;13809;48.632;11.576;2023-08-20T17:04:27;4.10;;;3.70;;
26034;SDS011;13809;48.632;11.576;2023-08-20T17:09:30;3.83;;;3.53;;
26034;SDS011;13809;48.632;11.576;2023-08-20T17:14:35;3.67;;;3.47;;
26034;SDS011;13809;48.632;11.576;2023-08-20T17:19:39;3.40;;;3.20;;
26034;SDS011;13809;48.632;11.576;2023-08-20T17:24:42;4.00;;;3.73;;
26034;SDS011;13809;48.632;11.576;2023-08-20T17:29:47;3.60;;;3.30;;
26034;SDS011;13809;48.632;11.576;2023-08-20T17:34:50;3.83;;;3.53;;
26034;SDS011;13809;48.632;11.576;2023-08-20T17:39:53;3.80;;;3.50;;
26034;SDS011;13809;48.632;11.576;2023-08-20T17:44:58;3.50;;;3.30;;
26034;SDS011;13809;48.632;11.576;2023-08-20T17:50:01;4.23;;;3.93;;
26034;SDS011;13809;48.632;11.576;2023-08-20T17:55:06;4.03;;;3.73;;
26034;SDS011;13809;48.632;11.576;2023-08-20T18:00:11;3.97;;;3.67;;
26034;SDS011;13809;48.632;11.576;2023-08-20T18:05:15;4.33;;;3.80;;
26034;SDS011;13809;48.632;11.576;2023-08-20T18:10:19;4.30;;;4.00;;
26034;SDS011;13809;48.632;11.576;2023-08-20T18:15:23;4.43;;;4.13;;
26034;SDS011;13809;48.632;11.576;2023-08-20T18:20:26;5.57;;;5.07;;
26034;SDS011;13809;48.632;11.576;2023-08-20T18:25:30;5.60;;;5.00;;
26034;SDS011;13809;48.632;11.576;2023-08-20T18:30:34;5.27;;;4.77;;
26034;SDS011;13809;48.632;11.576;2023-08-20T18:35:38;5.80;;;5.30;;
26034;SDS011;13809;48.632;11.576;2023-08-20T18:40:41;6.10;;;5.57;;
26034;SDS011;13809;48.632;11.576;2023-08-20T18:45:46;5.10;;;4.70;;
26034;SDS011;13809;48.632;11.576;2023-08-20T18:50:49;5.33;;;4.67;;
26034;SDS011;13809;48.632;11.576;2023-08-20T18:55:53;4.90;;;4.50;;
26034;SDS011;13809;48.632;11.576;2023-08-20T19:00:57;4.90;;;4.50;;
26034;SDS011;13809;48.632;11.576;2023-08-20T19:06:00;4.63;;;4.23;;
26034;SDS011;13809;48.632;11.576;2023-08-20T19:11:04;4.60;;;4.03;;
26034;SDS011;13809;48.632;11.576;2023-08-20T19:16:09;4.37;;;4.07;;
26034;SDS011;13809;48.632;11.576;2023-08-20T19:21:12;4.67;;;4.37;;
26034;SDS011;13809;48.632;11.576;2023-08-20T19:26:15;5.67;;;4.50;;
26034;SDS011;13809;48.632;11.576;2023-08-20T19:31:20;5.33;;;4.87;;
26034;SDS011;13809;48.632;11.576;2023-08-20T19:36:24;5.60;;;4.57;;
26034;SDS011;13809;48.632;11.576;2023-08-20T19:41:27;5.60;;;5.20;;
26034;SDS011;13809;48.632;11.576;2023-08-20T19:46:32;5.60;;;5.10;;
26034;SDS011;13809;48.632;11.576;2023-08-20T19:51:36;4.63;;;4.23;;
26034;SDS011;13809;48.632;11.576;2023-08-20T19:56:40;4.93;;;4.53;;
26034;SDS011;13809;48.632;11.576;2023-08-20T20:01:48;5.60;;;5.13;;
26034;SDS011;13809;48.632;11.576;2023-08-20T20:06:53;6.17;;;5.30;;
26034;SDS011;13809;48.632;11.576;2023-08-20T20:12:10;5.40;;;4.90;;
26034;SDS011;13809;48.632;11.576;2023-08-20T20:17:14;4.70;;;4.30;;
26034;SDS011;13809;48.632;11.576;2023-08-20T20:22:18;5.07;;;4.67;;
26034;SDS011;13809;48.632;11.576;2023-08-20T20:27:22;5.00;;;4.50;;
26034;SDS011;13809;48.632;11.576;2023-08-20T20:32:27;4.37;;;3.97;;
26034;SDS011;13809;48.632;11.576;2023-08-20T20:37:30;4.53;;;4.20;;
26034;SDS011;13809;48.632;11.576;2023-08-20T20:42:33;5.00;;;4.70;;
26034;SDS011;13809;48.632;11.576;2023-08-20T20:47:39;5.20;;;4.80;;
26034;SDS011;13809;48.632;11.576;2023-08-20T20:52:43;5.53;;;5.03;;
26034;SDS011;13809;48.632;11.576;2023-08-20T20:57:46;8.17;;;7.47;;
26034;SDS011;13809;48.632;11.576;2023-08-20T21:02:51;6.07;;;5.67;;
26034;SDS011;13809;48.632;11.576;2023-08-20T21:07:54;5.67;;;5.20;;
26034;SDS011;13809;48.632;11.576;2023-08-20T21:12:57;5.40;;;5.00;;
26034;SDS011;13809;48.632;11.576;2023-08-20T21:18:02;5.93;;;5.53;;
26034;SDS011;13809;48.632;11.576;2023-08-20T21:23:05;4.80;;;4.40;;
26034;SDS011;13809;48.632;11.576;2023-08-20T21:28:09;8.70;;;7.90;;
26034;SDS011;13809;48.632;11.576;2023-08-20T21:33:13;6.63;;;6.10;;
26034;SDS011;13809;48.632;11.576;2023-08-20T21:38:16;7.03;;;6.33;;
26034;SDS011;13809;48.632;11.576;2023-08-20T21:43:20;5.80;;;5.30;;
26034;SDS011;13809;48.632;11.576;2023-08-20T21:48:25;5.33;;;4.90;;
26034;SDS011;13809;48.632;11.576;2023-08-20T21:53:28;6.27;;;5.43;;
26034;SDS011;13809;48.632;11.576;2023-08-20T21:58:31;5.60;;;5.20;;
26034;SDS011;13809;48.632;11.576;2023-08-20T22:03:36;5.43;;;5.03;;
26034;SDS011;13809;48.632;11.576;2023-08-20T22:08:39;5.33;;;4.93;;
26034;SDS011;13809;48.632;11.576;2023-08-20T22:13:42;5.17;;;4.67;;
26034;SDS011;13809;48.632;11.576;2023-08-20T22:18:47;5.10;;;4.80;;
26034;SDS011;13809;48.632;11.576;2023-08-20T22:23:50;5.10;;;4.60;;
26034;SDS011;13809;48.632;11.576;2023-08-20T22:28:54;4.50;;;4.10;;
26034;SDS011;13809;48.632;11.576;2023-08-20T22:33:59;5.00;;;4.60;;
26034;SDS011;13809;48.632;11.576;2023-08-20T22:39:02;4.87;;;4.47;;
26034;SDS011;13809;48.632;11.576;2023-08-20T22:44:07;4.73;;;4.43;;
26034;SDS011;13809;48.632;11.576;2023-08-20T22:49:12;5.03;;;4.60;;
26034;SDS011;13809;48.632;11.576;2023-08-20T22:54:15;4.77;;;4.37;;
26034;SDS011;13809;48.632;11.576;2023-08-20T22:59:18;5.80;;;5.30;;
26034;SDS011;13809;48.632;11.576;2023-08-20T23:04:22;5.80;;;5.40;;
26034;SDS011;13809;48.632;11.576;2023-08-20T23:09:26;5.90;;;5.40;;
26034;SDS011;13809;48.632;11.576;2023-08-20T23:14:29;7.37;;;5.53;;
26034;SDS011;13809;48.632;11.576;2023-08-20T23:19:33;5.20;;;4.80;;
26034;SDS011;13809;48.632;11.576;2023-08-20T23:24:37;5.27;;;4.87;;
26034;SDS011;13809;48.632;11.576;2023-08-20T23:29:40;7.47;;;6.20;;
26034;SDS011;13809;48.632;11.576;2023-08-20T23:34:45;5.07;;;4.67;;
26034;SDS011;13809;48.632;11.576;2023-08-20T23:39:48;5.37;;;4.83;;
26034;SDS011;13809;48.632;11.576;2023-08-20T23:44:51;5.67;;;5.27;;
26034;SDS011;13809;48.632;11.576;2023-08-20T23:49:57;4.80;;;4.50;;
26034;SDS011;13809;48.632;11.576;2023-08-20T23:55:01;4.80;;;4.40;;
